createdAt,value
2022-08-31T00:01:30.599Z,21.78
2022-08-31T00:04:03.120Z,21.87
2022-08-31T00:06:32.036Z,21.79
2022-08-31T00:09:00.628Z,21.80
2022-08-31T00:11:31.010Z,21.76
2022-08-31T00:14:01.348Z,21.83
2022-08-31T00:16:33.998Z,21.92
2022-08-31T00:19:03.358Z,21.81
2022-08-31T00:21:31.349Z,21.84
2022-08-31T00:23:59.490Z,21.68
2022-08-31T00:26:29.010Z,21.88
2022-08-31T00:28:57.254Z,21.90
2022-08-31T00:31:25.282Z,21.68
2022-08-31T00:33:53.294Z,21.63
2022-08-31T00:36:23.581Z,21.65
2022-08-31T00:38:51.982Z,21.68
2022-08-31T00:41:22.733Z,21.66
2022-08-31T00:43:55.323Z,21.75
2022-08-31T00:46:26.562Z,21.56
2022-08-31T00:49:00.834Z,21.65
2022-08-31T00:51:31.089Z,21.69
2022-08-31T00:54:00.318Z,21.47
2022-08-31T00:56:31.364Z,21.73
2022-08-31T00:59:01.167Z,21.92
2022-08-31T01:01:30.786Z,21.67
2022-08-31T01:03:59.327Z,21.62
2022-08-31T01:06:28.358Z,21.68
2022-08-31T01:08:58.234Z,21.69
2022-08-31T01:11:26.777Z,21.56
2022-08-31T01:13:55.037Z,21.55
2022-08-31T01:16:29.376Z,21.46
2022-08-31T01:19:00.063Z,21.44
2022-08-31T01:21:31.016Z,21.50
2022-08-31T01:24:03.345Z,21.44
2022-08-31T01:26:34.234Z,21.42
2022-08-31T01:29:06.234Z,21.30
2022-08-31T01:31:37.296Z,21.46
2022-08-31T01:34:05.701Z,21.44
2022-08-31T01:36:36.782Z,21.23
2022-08-31T01:39:07.036Z,21.09
2022-08-31T01:41:35.128Z,21.16
2022-08-31T01:44:03.638Z,21.27
2022-08-31T01:46:32.574Z,21.23
2022-08-31T01:49:01.764Z,21.19
2022-08-31T01:51:29.848Z,21.23
2022-08-31T01:53:58.054Z,21.18
2022-08-31T01:56:31.341Z,21.14
2022-08-31T01:59:05.099Z,21.52
2022-08-31T02:01:54.641Z,21.42
2022-08-31T02:04:25.906Z,21.30
2022-08-31T02:07:00.622Z,21.20
2022-08-31T02:09:29.961Z,21.21
2022-08-31T02:12:01.038Z,21.06
2022-08-31T02:14:29.274Z,20.93
2022-08-31T02:16:57.526Z,20.95
2022-08-31T02:19:25.391Z,20.92
2022-08-31T02:21:57.007Z,20.74
2022-08-31T02:24:24.922Z,20.69
2022-08-31T02:26:53.981Z,20.73
2022-08-31T02:29:23.914Z,20.83
2022-08-31T02:31:52.305Z,20.89
2022-08-31T02:34:20.298Z,20.78
2022-08-31T02:36:48.778Z,20.82
2022-08-31T02:39:17.458Z,20.91
2022-08-31T02:41:46.085Z,20.93
2022-08-31T02:44:14.017Z,21.04
2022-08-31T02:46:43.833Z,21.15
2022-08-31T02:49:24.583Z,20.95
2022-08-31T02:51:55.307Z,20.76
2022-08-31T02:54:23.683Z,20.69
2022-08-31T02:56:52.990Z,20.67
2022-08-31T02:59:21.137Z,20.58
2022-08-31T03:01:52.852Z,20.47
2022-08-31T03:04:21.044Z,20.49
2022-08-31T03:06:49.075Z,20.49
2022-08-31T03:09:17.258Z,20.58
2022-08-31T03:11:45.386Z,20.63
2022-08-31T03:14:13.352Z,20.70
2022-08-31T03:16:41.623Z,20.61
2022-08-31T03:19:11.360Z,20.62
2022-08-31T03:21:39.323Z,20.74
2022-08-31T03:24:07.968Z,20.45
2022-08-31T03:26:36.182Z,20.47
2022-08-31T03:29:05.502Z,20.49
2022-08-31T03:31:54.646Z,20.57
2022-08-31T03:34:24.507Z,20.39
2022-08-31T03:36:52.555Z,20.32
2022-08-31T03:39:21.017Z,20.22
2022-08-31T03:41:49.313Z,20.22
2022-08-31T03:44:23.767Z,20.26
2022-08-31T03:46:55.256Z,20.24
2022-08-31T03:49:26.781Z,20.22
2022-08-31T03:52:16.350Z,20.41
2022-08-31T03:54:48.241Z,20.43
2022-08-31T03:57:16.440Z,20.54
2022-08-31T03:59:44.362Z,20.55
2022-08-31T04:02:22.075Z,20.47
2022-08-31T04:05:13.289Z,20.49
2022-08-31T04:08:00.531Z,20.48
2022-08-31T04:10:48.592Z,20.41
2022-08-31T04:13:29.887Z,20.42
2022-08-31T04:16:19.931Z,20.52
2022-08-31T04:19:07.976Z,20.54
2022-08-31T04:21:44.152Z,20.45
2022-08-31T04:24:14.205Z,20.58
2022-08-31T04:26:43.555Z,20.44
2022-08-31T04:29:13.656Z,20.51
2022-08-31T04:31:42.822Z,20.53
2022-08-31T04:34:11.026Z,20.42
2022-08-31T04:36:39.188Z,20.53
2022-08-31T04:39:09.775Z,20.44
2022-08-31T04:41:39.955Z,20.61
2022-08-31T04:44:12.331Z,20.78
2022-08-31T04:46:43.314Z,20.96
2022-08-31T04:49:14.696Z,20.71
2022-08-31T04:51:43.157Z,20.53
2022-08-31T04:54:14.942Z,20.52
2022-08-31T04:56:45.637Z,20.76
2022-08-31T04:59:26.237Z,20.35
2022-08-31T05:02:16.685Z,20.48
2022-08-31T05:04:58.146Z,20.71
2022-08-31T05:07:26.604Z,20.55
2022-08-31T05:09:58.313Z,20.55
2022-08-31T05:12:26.297Z,20.66
2022-08-31T05:14:54.274Z,20.77
2022-08-31T05:17:25.493Z,20.68
2022-08-31T05:19:54.177Z,20.52
2022-08-31T05:22:22.367Z,20.58
2022-08-31T05:24:53.217Z,20.54
2022-08-31T05:27:22.488Z,20.56
2022-08-31T05:29:50.637Z,20.65
2022-08-31T05:32:53.958Z,21.01
2022-08-31T05:35:21.906Z,20.92
2022-08-31T05:37:51.825Z,20.74
2022-08-31T05:40:21.203Z,20.92
2022-08-31T05:42:50.649Z,20.91
2022-08-31T05:45:18.869Z,20.97
2022-08-31T05:47:48.982Z,20.82
2022-08-31T05:50:18.552Z,20.65
2022-08-31T05:52:47.262Z,20.90
2022-08-31T05:55:15.566Z,20.75
2022-08-31T05:57:43.720Z,20.59
2022-08-31T06:00:13.998Z,20.83
2022-08-31T06:02:44.555Z,21.03
2022-08-31T06:05:15.139Z,20.80
2022-08-31T06:07:46.985Z,20.97
2022-08-31T06:10:17.147Z,20.85
2022-08-31T06:12:47.335Z,20.70
2022-08-31T06:15:21.094Z,20.82
2022-08-31T06:17:49.371Z,20.82
2022-08-31T06:20:18.382Z,20.99
2022-08-31T06:22:48.683Z,21.07
2022-08-31T06:25:33.837Z,20.92
2022-08-31T06:28:02.320Z,20.92
2022-08-31T06:30:32.803Z,20.84
2022-08-31T06:33:01.967Z,20.75
2022-08-31T06:35:40.155Z,20.87
2022-08-31T06:38:32.798Z,20.84
2022-08-31T06:41:22.659Z,20.98
2022-08-31T06:44:23.957Z,20.92
2022-08-31T06:47:13.616Z,21.00
2022-08-31T06:49:43.288Z,20.80
2022-08-31T06:52:11.302Z,20.82
2022-08-31T06:54:42.299Z,20.83
2022-08-31T06:57:29.412Z,20.99
2022-08-31T07:00:38.117Z,21.02
2022-08-31T07:03:24.347Z,20.85
2022-08-31T07:05:58.219Z,21.08
2022-08-31T07:08:26.398Z,20.96
2022-08-31T07:10:54.509Z,20.81
2022-08-31T07:13:22.536Z,21.18
2022-08-31T07:15:50.817Z,21.33
2022-08-31T07:18:18.859Z,21.17
2022-08-31T07:20:48.879Z,20.99
2022-08-31T07:23:17.988Z,21.10
2022-08-31T07:25:58.734Z,21.06
2022-08-31T07:28:29.050Z,20.84
2022-08-31T07:30:57.133Z,20.61
2022-08-31T07:33:25.127Z,20.67
2022-08-31T07:36:00.560Z,20.96
2022-08-31T07:38:54.132Z,20.71
2022-08-31T07:41:40.539Z,20.47
2022-08-31T07:44:10.033Z,20.33
2022-08-31T07:46:40.165Z,19.66
2022-08-31T07:49:13.870Z,19.75
2022-08-31T07:52:11.373Z,19.61
2022-08-31T07:55:07.966Z,19.16
2022-08-31T07:57:53.367Z,18.77
2022-08-31T08:00:23.519Z,18.54
2022-08-31T08:02:53.832Z,18.35
2022-08-31T08:05:32.519Z,18.13
2022-08-31T08:08:43.573Z,17.85
2022-08-31T08:11:22.023Z,17.65
2022-08-31T08:14:15.131Z,17.48
2022-08-31T08:17:10.293Z,17.48
2022-08-31T08:19:45.946Z,17.52
2022-08-31T08:22:26.128Z,17.65
2022-08-31T08:25:45.336Z,17.41
2022-08-31T08:31:18.224Z,17.28
2022-08-31T08:33:47.486Z,17.28
2022-08-31T08:36:18.333Z,17.38
2022-08-31T08:38:50.472Z,17.43
2022-08-31T08:41:23.042Z,17.38
2022-08-31T08:43:53.767Z,17.35
2022-08-31T08:47:38.016Z,17.37
2022-08-31T08:49:26.071Z,17.59
2022-08-31T08:51:59.384Z,17.52
2022-08-31T08:54:33.854Z,17.56
2022-08-31T08:57:14.376Z,17.68
2022-08-31T08:59:44.658Z,17.66
2022-08-31T09:02:20.020Z,17.57
2022-08-31T09:05:12.818Z,17.42
2022-08-31T09:08:10.532Z,17.40
2022-08-31T09:10:45.611Z,17.49
2022-08-31T09:13:25.629Z,17.56
2022-08-31T09:16:10.026Z,17.61
2022-08-31T09:18:46.762Z,17.80
2022-08-31T09:21:23.721Z,17.95
2022-08-31T09:24:01.574Z,17.92
2022-08-31T09:26:35.602Z,18.00
2022-08-31T09:29:24.717Z,18.20
2022-08-31T09:32:05.975Z,18.20
2022-08-31T09:34:37.643Z,18.31
2022-08-31T09:37:16.553Z,18.33
2022-08-31T09:39:47.578Z,18.43
2022-08-31T09:42:29.019Z,18.41
2022-08-31T09:45:00.854Z,18.47
2022-08-31T09:47:48.568Z,18.27
2022-08-31T09:50:31.627Z,18.42
2022-08-31T09:53:38.899Z,18.30
2022-08-31T09:56:19.777Z,18.40
2022-08-31T09:58:50.932Z,18.27
2022-08-31T10:01:29.858Z,18.21
2022-08-31T10:04:18.795Z,18.21
2022-08-31T10:06:55.299Z,18.23
2022-08-31T10:09:33.290Z,18.04
2022-08-31T10:12:05.678Z,18.11
2022-08-31T10:14:41.237Z,18.14
2022-08-31T10:17:15.330Z,18.15
2022-08-31T10:19:53.304Z,17.74
2022-08-31T10:22:33.385Z,17.91
2022-08-31T10:25:12.061Z,17.77
2022-08-31T10:27:45.137Z,17.85
2022-08-31T10:30:23.885Z,17.97
2022-08-31T10:32:58.890Z,17.88
2022-08-31T10:35:36.323Z,17.83
2022-08-31T10:38:20.262Z,17.87
2022-08-31T10:40:53.992Z,18.19
2022-08-31T10:43:26.788Z,17.90
2022-08-31T10:46:00.585Z,17.90
2022-08-31T10:48:30.303Z,17.84
2022-08-31T10:51:09.190Z,17.97
2022-08-31T10:53:57.770Z,17.93
2022-08-31T10:56:39.834Z,18.14
2022-08-31T10:59:18.683Z,18.30
2022-08-31T11:01:58.118Z,18.44
2022-08-31T11:04:51.880Z,18.38
2022-08-31T11:07:36.898Z,18.38
2022-08-31T11:10:22.232Z,18.40
2022-08-31T11:12:57.861Z,18.30
2022-08-31T11:15:58.904Z,18.21
2022-08-31T11:19:09.321Z,18.24
2022-08-31T11:22:06.298Z,18.20
2022-08-31T11:24:49.223Z,18.22
2022-08-31T11:27:24.640Z,18.29
2022-08-31T11:29:58.210Z,18.34
2022-08-31T11:32:34.221Z,18.47
2022-08-31T11:35:10.154Z,18.41
2022-08-31T11:37:59.705Z,18.42
2022-08-31T11:41:10.883Z,18.54
2022-08-31T11:43:48.993Z,18.83
2022-08-31T11:46:42.961Z,18.78
2022-08-31T11:49:34.591Z,18.74
2022-08-31T11:52:11.120Z,18.83
2022-08-31T11:55:07.941Z,18.94
2022-08-31T11:58:21.057Z,19.09
2022-08-31T12:00:57.447Z,19.14
2022-08-31T12:03:52.403Z,19.50
2022-08-31T12:07:09.310Z,19.71
2022-08-31T12:09:54.290Z,19.46
2022-08-31T12:12:34.526Z,19.60
2022-08-31T12:15:15.672Z,19.57
2022-08-31T12:17:56.991Z,19.61
2022-08-31T12:20:32.488Z,19.79
2022-08-31T12:23:37.694Z,19.65
2022-08-31T12:26:48.473Z,19.59
2022-08-31T12:29:26.716Z,19.85
2022-08-31T12:32:10.920Z,19.59
2022-08-31T12:34:46.787Z,19.56
2022-08-31T12:37:20.595Z,19.65
2022-08-31T12:39:48.711Z,19.88
2022-08-31T12:42:16.657Z,20.08
2022-08-31T12:44:52.434Z,20.20
2022-08-31T12:47:30.620Z,20.15
2022-08-31T12:50:13.955Z,20.20
2022-08-31T12:53:24.398Z,20.44
2022-08-31T12:56:00.442Z,20.35
2022-08-31T12:58:51.407Z,20.37
2022-08-31T13:01:24.097Z,20.36
2022-08-31T13:03:57.886Z,20.48
2022-08-31T13:06:27.970Z,20.53
2022-08-31T13:08:56.366Z,20.26
2022-08-31T13:11:35.116Z,20.34
2022-08-31T13:14:18.347Z,20.55
2022-08-31T13:16:49.903Z,20.47
2022-08-31T13:19:25.748Z,20.49
2022-08-31T13:21:58.136Z,20.30
2022-08-31T13:24:32.679Z,20.32
2022-08-31T13:27:05.870Z,20.33
2022-08-31T13:29:41.070Z,20.48
2022-08-31T13:32:10.659Z,20.58
2022-08-31T13:34:42.488Z,20.54
2022-08-31T13:37:15.593Z,20.47
2022-08-31T13:39:46.134Z,20.41
2022-08-31T13:42:28.747Z,20.39
2022-08-31T13:45:00.526Z,20.51
2022-08-31T13:47:48.834Z,20.71
2022-08-31T13:50:25.919Z,21.81
2022-08-31T13:53:22.998Z,23.02
2022-08-31T13:55:46.694Z,23.75
2022-08-31T13:58:27.270Z,23.49
2022-08-31T14:01:19.088Z,23.95
2022-08-31T14:03:57.308Z,23.64
2022-08-31T14:06:28.692Z,24.06
2022-08-31T14:09:10.093Z,24.27
2022-08-31T14:11:42.517Z,24.58
2022-08-31T14:14:13.132Z,24.80
2022-08-31T14:16:51.908Z,24.82
2022-08-31T14:19:32.726Z,25.05
2022-08-31T14:22:29.488Z,25.41
2022-08-31T14:25:00.367Z,25.23
2022-08-31T14:27:30.327Z,25.11
2022-08-31T14:29:58.401Z,25.11
2022-08-31T14:32:29.023Z,25.05
2022-08-31T14:34:59.073Z,25.08
2022-08-31T14:37:30.182Z,25.08
2022-08-31T14:40:07.012Z,25.05
2022-08-31T14:42:38.835Z,23.85
2022-08-31T14:45:09.717Z,23.46
2022-08-31T14:47:43.781Z,23.62
2022-08-31T14:50:16.425Z,24.07
2022-08-31T14:52:49.525Z,24.42
2022-08-31T14:55:20.209Z,24.63
2022-08-31T14:57:58.209Z,24.59
2022-08-31T15:00:29.186Z,24.61
2022-08-31T15:02:58.233Z,24.65
2022-08-31T15:05:27.762Z,24.19
2022-08-31T15:07:56.906Z,23.57
2022-08-31T15:10:26.425Z,23.27
2022-08-31T15:12:55.831Z,22.97
2022-08-31T15:15:25.638Z,22.66
2022-08-31T15:17:56.201Z,22.50
2022-08-31T15:20:25.356Z,22.32
2022-08-31T15:22:55.598Z,22.23
2022-08-31T15:25:26.361Z,22.29
2022-08-31T15:27:54.498Z,22.43
2022-08-31T15:30:24.573Z,22.76
2022-08-31T15:32:55.135Z,22.58
2022-08-31T15:35:26.433Z,22.69
2022-08-31T15:38:02.346Z,22.78
2022-08-31T15:40:38.777Z,22.66
2022-08-31T15:43:12.787Z,22.86
2022-08-31T15:45:41.942Z,23.07
2022-08-31T15:48:28.461Z,22.85
2022-08-31T15:51:00.432Z,22.59
2022-08-31T15:53:32.359Z,22.60
2022-08-31T15:56:06.789Z,22.52
2022-08-31T15:58:39.340Z,22.56
2022-08-31T16:01:12.847Z,22.51
2022-08-31T16:03:42.101Z,22.40
2022-08-31T16:06:11.741Z,22.24
2022-08-31T16:08:42.559Z,22.22
2022-08-31T16:11:12.942Z,22.42
2022-08-31T16:13:49.130Z,22.35
2022-08-31T16:16:18.622Z,22.34
2022-08-31T16:18:47.935Z,22.19
2022-08-31T16:21:20.235Z,22.01
2022-08-31T16:23:51.804Z,21.92
2022-08-31T16:26:21.755Z,22.01
2022-08-31T16:28:50.134Z,21.89
2022-08-31T16:31:19.032Z,21.81
2022-08-31T16:33:48.115Z,21.67
2022-08-31T16:36:18.455Z,21.63
2022-08-31T16:38:48.008Z,21.56
2022-08-31T16:41:19.294Z,21.61
2022-08-31T16:44:03.436Z,21.60
2022-08-31T16:46:40.935Z,21.60
2022-08-31T16:49:27.010Z,21.49
2022-08-31T16:51:55.564Z,21.36
2022-08-31T16:54:25.700Z,21.28
2022-08-31T16:56:57.670Z,21.27
2022-08-31T16:59:29.714Z,21.23
2022-08-31T17:01:58.238Z,21.21
2022-08-31T17:04:51.083Z,21.17
2022-08-31T17:07:18.950Z,21.17
2022-08-31T17:09:47.798Z,21.12
2022-08-31T17:12:21.814Z,21.10
2022-08-31T17:14:52.776Z,21.02
2022-08-31T17:17:22.561Z,20.95
2022-08-31T17:19:51.999Z,20.86
2022-08-31T17:22:26.945Z,20.85
2022-08-31T17:24:57.672Z,20.78
2022-08-31T17:27:27.861Z,20.67
2022-08-31T17:29:59.793Z,20.57
2022-08-31T17:32:29.184Z,20.51
2022-08-31T17:34:57.262Z,20.53
2022-08-31T17:37:27.775Z,20.50
2022-08-31T17:39:57.410Z,20.48
2022-08-31T17:42:28.181Z,20.42
2022-08-31T17:44:58.884Z,20.39
2022-08-31T17:47:27.357Z,20.33
2022-08-31T17:49:55.439Z,20.27
2022-08-31T17:52:24.484Z,20.25
2022-08-31T17:54:52.643Z,20.05
2022-08-31T17:57:24.900Z,20.03
2022-08-31T17:59:56.079Z,20.04
2022-08-31T18:02:27.548Z,19.93
2022-08-31T18:04:56.056Z,19.94
2022-08-31T18:07:24.918Z,19.87
2022-08-31T18:09:53.718Z,19.84
2022-08-31T18:12:22.864Z,19.75
2022-08-31T18:14:51.576Z,19.71
2022-08-31T18:17:23.421Z,19.86
2022-08-31T18:19:51.482Z,19.78
2022-08-31T18:22:19.959Z,19.68
2022-08-31T18:24:48.163Z,19.59
2022-08-31T18:27:16.167Z,19.59
2022-08-31T18:29:45.620Z,19.52
2022-08-31T18:32:17.362Z,19.47
2022-08-31T18:34:47.458Z,19.43
2022-08-31T18:37:22.351Z,19.41
2022-08-31T18:40:08.493Z,19.44
2022-08-31T18:43:06.108Z,19.40
2022-08-31T18:45:39.420Z,19.35
2022-08-31T18:48:24.461Z,19.31
2022-08-31T18:50:59.209Z,19.27
2022-08-31T18:53:30.266Z,19.30
2022-08-31T18:56:00.618Z,19.25
2022-08-31T18:58:29.921Z,19.24
2022-08-31T19:00:59.449Z,19.24
2022-08-31T19:03:28.451Z,19.18
2022-08-31T19:05:58.341Z,19.18
2022-08-31T19:08:26.752Z,19.13
2022-08-31T19:10:58.085Z,19.16
2022-08-31T19:13:31.160Z,19.14
2022-08-31T19:16:03.519Z,19.09
2022-08-31T19:18:36.236Z,19.06
2022-08-31T19:21:19.214Z,19.05
2022-08-31T19:23:47.719Z,19.10
2022-08-31T19:26:21.028Z,19.06
2022-08-31T19:28:50.258Z,19.03
2022-08-31T19:31:20.857Z,18.98
2022-08-31T19:33:56.083Z,18.95
2022-08-31T19:36:27.262Z,18.89
2022-08-31T19:38:57.467Z,18.86
2022-08-31T19:41:27.443Z,18.86
2022-08-31T19:44:07.814Z,18.77
2022-08-31T19:46:37.590Z,18.72
2022-08-31T19:49:09.484Z,18.66
2022-08-31T19:51:40.184Z,18.64
2022-08-31T19:54:11.674Z,18.64
2022-08-31T19:56:41.298Z,18.73
2022-08-31T19:59:09.794Z,18.68
2022-08-31T20:01:40.647Z,18.68
2022-08-31T20:04:14.395Z,18.63
2022-08-31T20:06:46.427Z,18.66
2022-08-31T20:09:14.821Z,18.66
2022-08-31T20:11:47.415Z,18.61
2022-08-31T20:14:18.660Z,18.60
2022-08-31T20:16:46.890Z,18.58
2022-08-31T20:19:20.746Z,18.61
2022-08-31T20:21:52.860Z,18.54
2022-08-31T20:24:22.384Z,18.53
2022-08-31T20:26:51.995Z,18.46
2022-08-31T20:29:21.613Z,18.41
2022-08-31T20:31:51.788Z,18.35
2022-08-31T20:34:22.811Z,18.38
2022-08-31T20:36:58.455Z,18.44
2022-08-31T20:39:30.338Z,18.36
2022-08-31T20:41:59.016Z,18.39
2022-08-31T20:44:29.358Z,18.38
2022-08-31T20:47:16.870Z,18.35
2022-08-31T20:49:51.022Z,18.27
2022-08-31T20:52:20.841Z,18.37
2022-08-31T20:54:52.864Z,18.45
2022-08-31T20:57:30.122Z,18.54
2022-08-31T20:59:58.461Z,18.40
2022-08-31T21:02:26.393Z,18.27
2022-08-31T21:04:54.699Z,18.26
2022-08-31T21:07:24.563Z,18.30
2022-08-31T21:09:52.738Z,18.25
2022-08-31T21:12:21.139Z,18.16
2022-08-31T21:14:49.659Z,18.21
2022-08-31T21:17:18.869Z,18.16
2022-08-31T21:19:46.840Z,18.34
2022-08-31T21:22:17.218Z,18.22
2022-08-31T21:24:47.538Z,18.14
2022-08-31T21:27:18.563Z,17.96
2022-08-31T21:29:47.240Z,18.07
2022-08-31T21:32:16.019Z,18.16
2022-08-31T21:34:44.311Z,18.08
2022-08-31T21:37:12.517Z,18.12
2022-08-31T21:39:41.788Z,17.94
2022-08-31T21:42:11.231Z,17.89
2022-08-31T21:44:39.506Z,17.84
2022-08-31T21:47:09.874Z,17.87
2022-08-31T21:49:38.032Z,18.00
2022-08-31T21:52:05.929Z,17.96
2022-08-31T21:54:33.970Z,18.00
2022-08-31T21:57:03.765Z,18.19
2022-08-31T21:59:36.033Z,18.22
2022-08-31T22:02:09.042Z,18.03
2022-08-31T22:04:40.548Z,17.89
2022-08-31T22:07:09.543Z,17.99
2022-08-31T22:09:38.370Z,17.84
2022-08-31T22:12:08.250Z,17.78
2022-08-31T22:14:39.998Z,17.61
2022-08-31T22:17:09.194Z,17.64
2022-08-31T22:19:39.875Z,17.55
2022-08-31T22:22:11.737Z,17.51
2022-08-31T22:24:42.194Z,17.51
2022-08-31T22:27:11.728Z,17.38
2022-08-31T22:29:41.965Z,17.31
2022-08-31T22:32:12.727Z,17.42
2022-08-31T22:34:43.052Z,17.27
2022-08-31T22:37:13.809Z,17.44
2022-08-31T22:39:42.718Z,17.31
2022-08-31T22:42:11.952Z,17.25
2022-08-31T22:44:43.178Z,17.19
2022-08-31T22:47:11.117Z,17.16
2022-08-31T22:49:39.323Z,17.13
2022-08-31T22:52:07.388Z,17.09
2022-08-31T22:54:36.449Z,16.93
2022-08-31T22:57:04.394Z,16.76
2022-08-31T22:59:32.264Z,16.99
2022-08-31T23:02:03.722Z,17.04
2022-08-31T23:04:34.322Z,17.00
2022-08-31T23:07:04.187Z,17.03
2022-08-31T23:09:34.208Z,17.02
2022-08-31T23:12:05.585Z,16.82
2022-08-31T23:14:33.579Z,16.83
2022-08-31T23:17:08.134Z,17.24
2022-08-31T23:19:38.878Z,17.44
2022-08-31T23:22:10.138Z,17.23
2022-08-31T23:24:43.831Z,17.14
2022-08-31T23:27:12.762Z,16.95
2022-08-31T23:29:45.606Z,16.79
2022-08-31T23:32:18.020Z,16.79
2022-08-31T23:34:49.265Z,16.75
2022-08-31T23:37:18.507Z,16.70
2022-08-31T23:39:47.626Z,16.87
2022-08-31T23:42:17.104Z,16.93
2022-08-31T23:44:46.934Z,16.78
2022-08-31T23:47:20.201Z,16.60
2022-08-31T23:49:49.694Z,16.43
2022-08-31T23:52:21.589Z,16.38
2022-08-31T23:54:52.202Z,16.46
2022-08-31T23:57:32.247Z,16.61
